sensor_id;sensor_type;location;lat;lon;timestamp;P1;durP1;ratioP1;P2;durP2;ratioP2
572;SDS011;271;51.114;13.780;2024-03-08T00:02:29;34.45;;;16.45;;
572;SDS011;271;51.114;13.780;2024-03-08T00:05:16;35.10;;;16.73;;
572;SDS011;271;51.114;13.780;2024-03-08T00:08:06;35.25;;;17.85;;
572;SDS011;271;51.114;13.780;2024-03-08T00:10:55;36.72;;;17.20;;
572;SDS011;271;51.114;13.780;2024-03-08T00:13:43;36.72;;;18.25;;
572;SDS011;271;51.114;13.780;2024-03-08T00:16:31;35.15;;;16.58;;
572;SDS011;271;51.114;13.780;2024-03-08T00:19:18;37.10;;;17.45;;
572;SDS011;271;51.114;13.780;2024-03-08T00:22:06;37.20;;;17.92;;
572;SDS011;271;51.114;13.780;2024-03-08T00:24:55;37.90;;;18.50;;
572;SDS011;271;51.114;13.780;2024-03-08T00:27:43;40.85;;;18.88;;
572;SDS011;271;51.114;13.780;2024-03-08T00:30:30;37.42;;;17.65;;
572;SDS011;271;51.114;13.780;2024-03-08T00:33:18;36.35;;;17.02;;
572;SDS011;271;51.114;13.780;2024-03-08T00:36:06;36.67;;;18.52;;
572;SDS011;271;51.114;13.780;2024-03-08T00:38:54;35.85;;;17.55;;
572;SDS011;271;51.114;13.780;2024-03-08T00:41:43;37.33;;;18.83;;
572;SDS011;271;51.114;13.780;2024-03-08T00:44:30;38.55;;;17.73;;
572;SDS011;271;51.114;13.780;2024-03-08T00:47:18;35.08;;;17.38;;
572;SDS011;271;51.114;13.780;2024-03-08T00:50:06;37.28;;;17.17;;
572;SDS011;271;51.114;13.780;2024-03-08T00:52:54;35.33;;;16.83;;
572;SDS011;271;51.114;13.780;2024-03-08T00:55:42;34.95;;;16.77;;
572;SDS011;271;51.114;13.780;2024-03-08T00:58:33;38.10;;;17.45;;
572;SDS011;271;51.114;13.780;2024-03-08T01:01:21;34.40;;;17.25;;
572;SDS011;271;51.114;13.780;2024-03-08T01:04:10;40.20;;;17.40;;
572;SDS011;271;51.114;13.780;2024-03-08T01:06:58;38.75;;;17.45;;
572;SDS011;271;51.114;13.780;2024-03-08T01:09:46;38.30;;;17.23;;
572;SDS011;271;51.114;13.780;2024-03-08T01:12:34;33.80;;;16.88;;
572;SDS011;271;51.114;13.780;2024-03-08T01:15:23;37.63;;;18.30;;
572;SDS011;271;51.114;13.780;2024-03-08T01:18:11;38.70;;;18.95;;
572;SDS011;271;51.114;13.780;2024-03-08T01:20:59;37.17;;;18.42;;
572;SDS011;271;51.114;13.780;2024-03-08T01:23:46;39.38;;;18.25;;
572;SDS011;271;51.114;13.780;2024-03-08T01:26:34;37.55;;;16.92;;
572;SDS011;271;51.114;13.780;2024-03-08T01:29:22;37.33;;;18.52;;
572;SDS011;271;51.114;13.780;2024-03-08T01:32:11;41.97;;;19.38;;
572;SDS011;271;51.114;13.780;2024-03-08T01:34:58;37.40;;;17.65;;
572;SDS011;271;51.114;13.780;2024-03-08T01:37:46;37.05;;;17.55;;
572;SDS011;271;51.114;13.780;2024-03-08T01:40:35;39.25;;;18.77;;
572;SDS011;271;51.114;13.780;2024-03-08T01:43:25;37.38;;;17.85;;
572;SDS011;271;51.114;13.780;2024-03-08T01:46:15;37.20;;;18.00;;
572;SDS011;271;51.114;13.780;2024-03-08T01:49:06;40.70;;;18.50;;
572;SDS011;271;51.114;13.780;2024-03-08T01:51:54;40.40;;;19.45;;
572;SDS011;271;51.114;13.780;2024-03-08T01:54:43;41.65;;;19.33;;
572;SDS011;271;51.114;13.780;2024-03-08T01:57:31;37.90;;;18.23;;
572;SDS011;271;51.114;13.780;2024-03-08T02:00:20;34.50;;;16.40;;
572;SDS011;271;51.114;13.780;2024-03-08T02:03:09;35.50;;;17.92;;
572;SDS011;271;51.114;13.780;2024-03-08T02:05:59;34.92;;;17.60;;
572;SDS011;271;51.114;13.780;2024-03-08T02:08:47;39.35;;;16.08;;
572;SDS011;271;51.114;13.780;2024-03-08T02:11:35;43.40;;;21.10;;
572;SDS011;271;51.114;13.780;2024-03-08T02:14:23;38.78;;;18.40;;
572;SDS011;271;51.114;13.780;2024-03-08T02:17:10;35.67;;;15.50;;
572;SDS011;271;51.114;13.780;2024-03-08T02:19:58;48.58;;;19.65;;
572;SDS011;271;51.114;13.780;2024-03-08T02:22:48;36.92;;;18.15;;
572;SDS011;271;51.114;13.780;2024-03-08T02:25:36;41.80;;;19.88;;
572;SDS011;271;51.114;13.780;2024-03-08T02:28:24;40.28;;;18.42;;
572;SDS011;271;51.114;13.780;2024-03-08T02:31:12;42.20;;;20.45;;
572;SDS011;271;51.114;13.780;2024-03-08T02:34:00;41.08;;;19.48;;
572;SDS011;271;51.114;13.780;2024-03-08T02:36:47;41.05;;;18.50;;
572;SDS011;271;51.114;13.780;2024-03-08T02:39:36;40.50;;;20.15;;
572;SDS011;271;51.114;13.780;2024-03-08T02:42:24;43.55;;;19.73;;
572;SDS011;271;51.114;13.780;2024-03-08T02:45:11;41.53;;;20.27;;
572;SDS011;271;51.114;13.780;2024-03-08T02:47:59;36.20;;;18.73;;
572;SDS011;271;51.114;13.780;2024-03-08T02:50:47;39.75;;;19.85;;
572;SDS011;271;51.114;13.780;2024-03-08T02:53:36;40.63;;;20.00;;
572;SDS011;271;51.114;13.780;2024-03-08T02:56:27;40.63;;;21.33;;
572;SDS011;271;51.114;13.780;2024-03-08T02:59:16;42.08;;;19.73;;
572;SDS011;271;51.114;13.780;2024-03-08T03:02:04;42.95;;;19.63;;
572;SDS011;271;51.114;13.780;2024-03-08T03:04:52;37.67;;;18.40;;
572;SDS011;271;51.114;13.780;2024-03-08T03:07:41;42.63;;;19.73;;
572;SDS011;271;51.114;13.780;2024-03-08T03:10:29;38.42;;;20.20;;
572;SDS011;271;51.114;13.780;2024-03-08T03:13:18;38.13;;;18.15;;
572;SDS011;271;51.114;13.780;2024-03-08T03:16:06;40.15;;;18.73;;
572;SDS011;271;51.114;13.780;2024-03-08T03:18:56;47.00;;;21.70;;
572;SDS011;271;51.114;13.780;2024-03-08T03:21:44;40.25;;;19.48;;
572;SDS011;271;51.114;13.780;2024-03-08T03:24:33;43.95;;;20.58;;
572;SDS011;271;51.114;13.780;2024-03-08T03:27:21;42.08;;;20.23;;
572;SDS011;271;51.114;13.780;2024-03-08T03:30:12;42.60;;;20.80;;
572;SDS011;271;51.114;13.780;2024-03-08T03:33:09;44.10;;;21.05;;
572;SDS011;271;51.114;13.780;2024-03-08T03:35:58;45.33;;;20.70;;
572;SDS011;271;51.114;13.780;2024-03-08T03:38:46;44.85;;;21.02;;
572;SDS011;271;51.114;13.780;2024-03-08T03:41:34;40.53;;;18.67;;
572;SDS011;271;51.114;13.780;2024-03-08T03:44:22;43.75;;;21.45;;
572;SDS011;271;51.114;13.780;2024-03-08T03:47:11;46.15;;;22.42;;
572;SDS011;271;51.114;13.780;2024-03-08T03:50:00;42.42;;;19.80;;
572;SDS011;271;51.114;13.780;2024-03-08T03:52:48;40.33;;;19.90;;
572;SDS011;271;51.114;13.780;2024-03-08T03:55:36;42.58;;;19.92;;
572;SDS011;271;51.114;13.780;2024-03-08T03:58:24;42.53;;;19.33;;
572;SDS011;271;51.114;13.780;2024-03-08T04:01:13;42.58;;;21.30;;
572;SDS011;271;51.114;13.780;2024-03-08T04:04:02;44.42;;;22.83;;
572;SDS011;271;51.114;13.780;2024-03-08T04:06:51;40.40;;;20.30;;
572;SDS011;271;51.114;13.780;2024-03-08T04:09:38;47.17;;;21.23;;
572;SDS011;271;51.114;13.780;2024-03-08T04:12:26;47.60;;;21.65;;
572;SDS011;271;51.114;13.780;2024-03-08T04:15:15;44.30;;;20.88;;
572;SDS011;271;51.114;13.780;2024-03-08T04:18:03;42.50;;;21.30;;
572;SDS011;271;51.114;13.780;2024-03-08T04:20:52;45.83;;;22.05;;
572;SDS011;271;51.114;13.780;2024-03-08T04:23:40;45.22;;;22.60;;
572;SDS011;271;51.114;13.780;2024-03-08T04:26:31;47.15;;;24.50;;
572;SDS011;271;51.114;13.780;2024-03-08T04:29:19;47.55;;;23.40;;
572;SDS011;271;51.114;13.780;2024-03-08T04:32:08;48.08;;;23.77;;
572;SDS011;271;51.114;13.780;2024-03-08T04:34:56;47.65;;;24.05;;
572;SDS011;271;51.114;13.780;2024-03-08T04:37:45;49.80;;;25.83;;
572;SDS011;271;51.114;13.780;2024-03-08T04:40:34;49.00;;;24.00;;
572;SDS011;271;51.114;13.780;2024-03-08T04:43:22;45.08;;;23.45;;
572;SDS011;271;51.114;13.780;2024-03-08T04:46:12;45.05;;;24.50;;
572;SDS011;271;51.114;13.780;2024-03-08T04:49:00;43.60;;;22.90;;
572;SDS011;271;51.114;13.780;2024-03-08T04:51:48;45.90;;;21.92;;
572;SDS011;271;51.114;13.780;2024-03-08T04:54:37;50.22;;;24.83;;
572;SDS011;271;51.114;13.780;2024-03-08T04:57:25;41.20;;;21.75;;
572;SDS011;271;51.114;13.780;2024-03-08T05:00:14;47.08;;;24.27;;
572;SDS011;271;51.114;13.780;2024-03-08T05:03:02;45.60;;;23.52;;
572;SDS011;271;51.114;13.780;2024-03-08T05:05:50;46.55;;;23.08;;
572;SDS011;271;51.114;13.780;2024-03-08T05:08:38;48.28;;;24.52;;
572;SDS011;271;51.114;13.780;2024-03-08T05:11:27;46.40;;;24.45;;
572;SDS011;271;51.114;13.780;2024-03-08T05:14:15;49.70;;;24.60;;
572;SDS011;271;51.114;13.780;2024-03-08T05:17:05;50.03;;;22.60;;
572;SDS011;271;51.114;13.780;2024-03-08T05:19:53;46.30;;;24.85;;
572;SDS011;271;51.114;13.780;2024-03-08T05:22:40;45.70;;;23.38;;
572;SDS011;271;51.114;13.780;2024-03-08T05:25:28;51.30;;;24.15;;
572;SDS011;271;51.114;13.780;2024-03-08T05:28:17;46.05;;;24.10;;
572;SDS011;271;51.114;13.780;2024-03-08T05:31:05;43.83;;;23.50;;
572;SDS011;271;51.114;13.780;2024-03-08T05:33:53;47.42;;;25.33;;
572;SDS011;271;51.114;13.780;2024-03-08T05:36:42;53.15;;;25.23;;
572;SDS011;271;51.114;13.780;2024-03-08T05:39:30;52.10;;;25.88;;
572;SDS011;271;51.114;13.780;2024-03-08T05:42:18;49.40;;;23.77;;
572;SDS011;271;51.114;13.780;2024-03-08T05:45:07;51.17;;;26.23;;
572;SDS011;271;51.114;13.780;2024-03-08T05:47:55;48.78;;;25.08;;
572;SDS011;271;51.114;13.780;2024-03-08T05:50:43;48.78;;;25.45;;
572;SDS011;271;51.114;13.780;2024-03-08T05:53:31;51.90;;;26.55;;
572;SDS011;271;51.114;13.780;2024-03-08T05:56:19;45.80;;;24.13;;
572;SDS011;271;51.114;13.780;2024-03-08T05:59:08;46.17;;;23.50;;
572;SDS011;271;51.114;13.780;2024-03-08T06:01:57;49.83;;;25.10;;
572;SDS011;271;51.114;13.780;2024-03-08T06:04:45;49.50;;;23.45;;
572;SDS011;271;51.114;13.780;2024-03-08T06:07:33;52.58;;;26.02;;
572;SDS011;271;51.114;13.780;2024-03-08T06:10:21;50.22;;;25.52;;
572;SDS011;271;51.114;13.780;2024-03-08T06:13:09;51.60;;;25.23;;
572;SDS011;271;51.114;13.780;2024-03-08T06:15:57;51.05;;;25.67;;
572;SDS011;271;51.114;13.780;2024-03-08T06:18:47;51.30;;;25.48;;
572;SDS011;271;51.114;13.780;2024-03-08T06:21:35;46.95;;;25.67;;
572;SDS011;271;51.114;13.780;2024-03-08T06:24:22;45.33;;;23.75;;
572;SDS011;271;51.114;13.780;2024-03-08T06:27:10;48.97;;;25.02;;
572;SDS011;271;51.114;13.780;2024-03-08T06:29:57;48.05;;;23.90;;
572;SDS011;271;51.114;13.780;2024-03-08T06:32:45;44.40;;;23.55;;
572;SDS011;271;51.114;13.780;2024-03-08T06:35:34;46.30;;;23.80;;
572;SDS011;271;51.114;13.780;2024-03-08T06:38:23;48.60;;;24.73;;
572;SDS011;271;51.114;13.780;2024-03-08T06:41:11;49.42;;;24.50;;
572;SDS011;271;51.114;13.780;2024-03-08T06:44:01;45.05;;;22.90;;
572;SDS011;271;51.114;13.780;2024-03-08T06:46:48;47.03;;;24.77;;
572;SDS011;271;51.114;13.780;2024-03-08T06:49:36;44.78;;;23.98;;
572;SDS011;271;51.114;13.780;2024-03-08T06:52:25;47.25;;;23.02;;
572;SDS011;271;51.114;13.780;2024-03-08T06:55:13;42.72;;;21.60;;
572;SDS011;271;51.114;13.780;2024-03-08T06:58:03;42.47;;;22.83;;
572;SDS011;271;51.114;13.780;2024-03-08T07:00:52;48.05;;;23.48;;
572;SDS011;271;51.114;13.780;2024-03-08T07:03:44;46.40;;;22.40;;
572;SDS011;271;51.114;13.780;2024-03-08T07:06:32;40.63;;;21.98;;
572;SDS011;271;51.114;13.780;2024-03-08T07:09:21;42.83;;;21.48;;
572;SDS011;271;51.114;13.780;2024-03-08T07:12:09;43.38;;;22.38;;
572;SDS011;271;51.114;13.780;2024-03-08T07:14:59;43.20;;;22.95;;
572;SDS011;271;51.114;13.780;2024-03-08T07:17:47;42.67;;;22.52;;
572;SDS011;271;51.114;13.780;2024-03-08T07:20:34;37.97;;;20.52;;
572;SDS011;271;51.114;13.780;2024-03-08T07:23:23;38.58;;;21.52;;
572;SDS011;271;51.114;13.780;2024-03-08T07:26:28;38.88;;;23.13;;
572;SDS011;271;51.114;13.780;2024-03-08T07:29:17;42.25;;;22.60;;
572;SDS011;271;51.114;13.780;2024-03-08T07:32:05;40.50;;;20.55;;
572;SDS011;271;51.114;13.780;2024-03-08T07:35:06;45.17;;;21.27;;
572;SDS011;271;51.114;13.780;2024-03-08T07:37:55;40.45;;;21.63;;
572;SDS011;271;51.114;13.780;2024-03-08T07:40:44;39.55;;;21.10;;
572;SDS011;271;51.114;13.780;2024-03-08T07:43:35;41.75;;;21.90;;
572;SDS011;271;51.114;13.780;2024-03-08T07:46:23;41.58;;;20.75;;
572;SDS011;271;51.114;13.780;2024-03-08T07:49:10;39.85;;;20.38;;
572;SDS011;271;51.114;13.780;2024-03-08T07:51:58;41.38;;;22.35;;
572;SDS011;271;51.114;13.780;2024-03-08T07:54:46;42.20;;;21.40;;
572;SDS011;271;51.114;13.780;2024-03-08T07:57:34;40.15;;;23.10;;
572;SDS011;271;51.114;13.780;2024-03-08T08:00:25;39.80;;;19.20;;
572;SDS011;271;51.114;13.780;2024-03-08T08:03:13;38.50;;;20.25;;
572;SDS011;271;51.114;13.780;2024-03-08T08:06:01;37.67;;;19.63;;
572;SDS011;271;51.114;13.780;2024-03-08T08:08:49;37.80;;;19.83;;
572;SDS011;271;51.114;13.780;2024-03-08T08:11:37;38.45;;;19.65;;
572;SDS011;271;51.114;13.780;2024-03-08T08:14:26;41.08;;;20.23;;
572;SDS011;271;51.114;13.780;2024-03-08T08:17:16;41.28;;;17.88;;
572;SDS011;271;51.114;13.780;2024-03-08T08:20:07;38.08;;;19.45;;
572;SDS011;271;51.114;13.780;2024-03-08T08:22:57;36.03;;;17.45;;
572;SDS011;271;51.114;13.780;2024-03-08T08:25:45;33.25;;;17.27;;
572;SDS011;271;51.114;13.780;2024-03-08T08:28:35;37.25;;;17.40;;
572;SDS011;271;51.114;13.780;2024-03-08T08:31:24;34.83;;;17.30;;
572;SDS011;271;51.114;13.780;2024-03-08T08:34:13;36.42;;;17.35;;
572;SDS011;271;51.114;13.780;2024-03-08T08:37:01;34.30;;;16.65;;
572;SDS011;271;51.114;13.780;2024-03-08T08:39:48;34.15;;;15.90;;
572;SDS011;271;51.114;13.780;2024-03-08T08:42:37;30.85;;;15.82;;
572;SDS011;271;51.114;13.780;2024-03-08T08:45:24;36.08;;;15.40;;
572;SDS011;271;51.114;13.780;2024-03-08T08:48:12;33.00;;;14.50;;
572;SDS011;271;51.114;13.780;2024-03-08T08:51:03;32.92;;;14.50;;
572;SDS011;271;51.114;13.780;2024-03-08T08:53:52;29.70;;;15.00;;
572;SDS011;271;51.114;13.780;2024-03-08T08:56:41;29.47;;;14.97;;
572;SDS011;271;51.114;13.780;2024-03-08T08:59:29;33.50;;;16.30;;
572;SDS011;271;51.114;13.780;2024-03-08T09:02:17;31.53;;;16.20;;
572;SDS011;271;51.114;13.780;2024-03-08T09:05:06;32.87;;;16.03;;
572;SDS011;271;51.114;13.780;2024-03-08T09:07:56;32.60;;;17.38;;
572;SDS011;271;51.114;13.780;2024-03-08T09:10:43;31.23;;;15.43;;
572;SDS011;271;51.114;13.780;2024-03-08T09:13:31;33.07;;;15.40;;
572;SDS011;271;51.114;13.780;2024-03-08T09:16:19;32.93;;;16.63;;
572;SDS011;271;51.114;13.780;2024-03-08T09:19:07;35.67;;;16.83;;
572;SDS011;271;51.114;13.780;2024-03-08T09:21:56;34.93;;;15.83;;
572;SDS011;271;51.114;13.780;2024-03-08T09:24:45;34.10;;;16.13;;
572;SDS011;271;51.114;13.780;2024-03-08T09:27:33;33.90;;;15.53;;
572;SDS011;271;51.114;13.780;2024-03-08T09:30:21;35.53;;;16.73;;
572;SDS011;271;51.114;13.780;2024-03-08T09:33:09;28.67;;;13.87;;
572;SDS011;271;51.114;13.780;2024-03-08T09:35:57;32.90;;;15.07;;
572;SDS011;271;51.114;13.780;2024-03-08T09:38:45;26.97;;;13.13;;
572;SDS011;271;51.114;13.780;2024-03-08T09:41:34;28.03;;;13.23;;
572;SDS011;271;51.114;13.780;2024-03-08T09:44:22;30.23;;;14.50;;
572;SDS011;271;51.114;13.780;2024-03-08T09:47:11;30.73;;;13.17;;
572;SDS011;271;51.114;13.780;2024-03-08T09:50:00;29.40;;;14.70;;
572;SDS011;271;51.114;13.780;2024-03-08T09:52:48;29.13;;;14.73;;
572;SDS011;271;51.114;13.780;2024-03-08T09:55:36;31.53;;;14.70;;
572;SDS011;271;51.114;13.780;2024-03-08T09:58:29;28.87;;;13.83;;
572;SDS011;271;51.114;13.780;2024-03-08T10:01:38;27.33;;;13.57;;
572;SDS011;271;51.114;13.780;2024-03-08T10:04:35;30.30;;;14.27;;
572;SDS011;271;51.114;13.780;2024-03-08T10:07:28;28.83;;;14.63;;
572;SDS011;271;51.114;13.780;2024-03-08T10:10:15;30.33;;;15.27;;
572;SDS011;271;51.114;13.780;2024-03-08T10:13:05;31.13;;;13.90;;
572;SDS011;271;51.114;13.780;2024-03-08T10:15:54;30.07;;;14.40;;
572;SDS011;271;51.114;13.780;2024-03-08T10:18:42;32.77;;;15.23;;
572;SDS011;271;51.114;13.780;2024-03-08T10:21:31;28.50;;;13.77;;
572;SDS011;271;51.114;13.780;2024-03-08T10:24:19;29.53;;;14.03;;
572;SDS011;271;51.114;13.780;2024-03-08T10:27:07;30.30;;;14.07;;
572;SDS011;271;51.114;13.780;2024-03-08T10:29:55;27.60;;;12.90;;
572;SDS011;271;51.114;13.780;2024-03-08T10:32:44;26.37;;;12.30;;
572;SDS011;271;51.114;13.780;2024-03-08T10:35:32;28.00;;;13.43;;
572;SDS011;271;51.114;13.780;2024-03-08T10:38:20;27.10;;;12.10;;
572;SDS011;271;51.114;13.780;2024-03-08T10:41:09;27.40;;;12.63;;
572;SDS011;271;51.114;13.780;2024-03-08T10:44:07;27.60;;;13.00;;
572;SDS011;271;51.114;13.780;2024-03-08T10:47:08;30.00;;;13.40;;
572;SDS011;271;51.114;13.780;2024-03-08T10:50:05;27.20;;;12.03;;
572;SDS011;271;51.114;13.780;2024-03-08T10:52:58;26.90;;;12.97;;
572;SDS011;271;51.114;13.780;2024-03-08T10:55:47;30.87;;;12.83;;
572;SDS011;271;51.114;13.780;2024-03-08T10:58:39;27.23;;;13.27;;
572;SDS011;271;51.114;13.780;2024-03-08T11:01:27;28.10;;;13.37;;
572;SDS011;271;51.114;13.780;2024-03-08T11:04:15;28.07;;;13.10;;
572;SDS011;271;51.114;13.780;2024-03-08T11:07:06;28.40;;;13.03;;
572;SDS011;271;51.114;13.780;2024-03-08T11:09:55;27.87;;;12.90;;
572;SDS011;271;51.114;13.780;2024-03-08T11:12:43;29.67;;;14.00;;
572;SDS011;271;51.114;13.780;2024-03-08T11:15:31;26.10;;;12.13;;
572;SDS011;271;51.114;13.780;2024-03-08T11:18:19;26.67;;;12.70;;
572;SDS011;271;51.114;13.780;2024-03-08T11:21:08;27.17;;;11.73;;
572;SDS011;271;51.114;13.780;2024-03-08T11:24:00;28.50;;;11.97;;
572;SDS011;271;51.114;13.780;2024-03-08T11:26:49;30.20;;;13.53;;
572;SDS011;271;51.114;13.780;2024-03-08T11:29:59;23.87;;;12.03;;
572;SDS011;271;51.114;13.780;2024-03-08T11:32:54;26.40;;;11.50;;
572;SDS011;271;51.114;13.780;2024-03-08T11:35:49;26.10;;;11.60;;
572;SDS011;271;51.114;13.780;2024-03-08T11:38:39;25.70;;;11.63;;
572;SDS011;271;51.114;13.780;2024-03-08T11:41:29;25.60;;;11.10;;
572;SDS011;271;51.114;13.780;2024-03-08T11:44:17;24.87;;;9.60;;
572;SDS011;271;51.114;13.780;2024-03-08T11:47:08;24.27;;;11.00;;
572;SDS011;271;51.114;13.780;2024-03-08T11:49:57;27.10;;;10.97;;
572;SDS011;271;51.114;13.780;2024-03-08T11:52:45;25.53;;;11.50;;
572;SDS011;271;51.114;13.780;2024-03-08T11:55:35;25.30;;;10.33;;
572;SDS011;271;51.114;13.780;2024-03-08T11:58:24;27.43;;;10.47;;
572;SDS011;271;51.114;13.780;2024-03-08T12:01:14;27.67;;;11.27;;
572;SDS011;271;51.114;13.780;2024-03-08T12:04:05;24.93;;;10.83;;
572;SDS011;271;51.114;13.780;2024-03-08T12:06:53;25.90;;;11.63;;
572;SDS011;271;51.114;13.780;2024-03-08T12:13:06;32.27;;;17.70;;
572;SDS011;271;51.114;13.780;2024-03-08T12:16:00;34.00;;;18.40;;
572;SDS011;271;51.114;13.780;2024-03-08T12:18:55;33.20;;;18.57;;
572;SDS011;271;51.114;13.780;2024-03-08T12:21:43;35.63;;;19.50;;
572;SDS011;271;51.114;13.780;2024-03-08T12:24:34;37.23;;;20.80;;
572;SDS011;271;51.114;13.780;2024-03-08T12:27:23;34.80;;;17.47;;
572;SDS011;271;51.114;13.780;2024-03-08T12:30:15;32.67;;;18.17;;
572;SDS011;271;51.114;13.780;2024-03-08T12:33:21;35.97;;;21.80;;
572;SDS011;271;51.114;13.780;2024-03-08T12:36:18;35.53;;;20.20;;
572;SDS011;271;51.114;13.780;2024-03-08T12:39:07;34.10;;;19.37;;
572;SDS011;271;51.114;13.780;2024-03-08T12:41:58;36.40;;;20.93;;
572;SDS011;271;51.114;13.780;2024-03-08T12:44:45;35.77;;;19.17;;
572;SDS011;271;51.114;13.780;2024-03-08T12:47:33;34.87;;;20.07;;
572;SDS011;271;51.114;13.780;2024-03-08T12:50:22;39.37;;;20.27;;
572;SDS011;271;51.114;13.780;2024-03-08T12:53:11;39.80;;;18.07;;
572;SDS011;271;51.114;13.780;2024-03-08T12:56:04;34.83;;;20.50;;
572;SDS011;271;51.114;13.780;2024-03-08T12:58:54;37.60;;;20.53;;
572;SDS011;271;51.114;13.780;2024-03-08T13:01:42;36.43;;;19.13;;
572;SDS011;271;51.114;13.780;2024-03-08T13:04:30;33.50;;;20.60;;
572;SDS011;271;51.114;13.780;2024-03-08T13:07:19;36.90;;;20.90;;
572;SDS011;271;51.114;13.780;2024-03-08T13:10:07;32.67;;;18.80;;
572;SDS011;271;51.114;13.780;2024-03-08T13:13:00;35.37;;;19.47;;
572;SDS011;271;51.114;13.780;2024-03-08T13:15:49;37.87;;;20.07;;
572;SDS011;271;51.114;13.780;2024-03-08T13:18:36;36.57;;;19.40;;
572;SDS011;271;51.114;13.780;2024-03-08T13:21:25;33.67;;;17.40;;
572;SDS011;271;51.114;13.780;2024-03-08T13:24:16;31.73;;;17.40;;
572;SDS011;271;51.114;13.780;2024-03-08T13:27:05;34.27;;;18.73;;
572;SDS011;271;51.114;13.780;2024-03-08T13:30:05;34.47;;;18.67;;
572;SDS011;271;51.114;13.780;2024-03-08T13:32:58;31.07;;;16.10;;
572;SDS011;271;51.114;13.780;2024-03-08T13:35:46;35.50;;;18.33;;
572;SDS011;271;51.114;13.780;2024-03-08T13:38:34;32.00;;;17.10;;
572;SDS011;271;51.114;13.780;2024-03-08T13:41:23;31.90;;;16.60;;
572;SDS011;271;51.114;13.780;2024-03-08T13:44:11;30.27;;;16.60;;
572;SDS011;271;51.114;13.780;2024-03-08T13:46:59;29.93;;;15.03;;
572;SDS011;271;51.114;13.780;2024-03-08T13:49:50;31.30;;;16.77;;
572;SDS011;271;51.114;13.780;2024-03-08T13:52:38;29.20;;;14.53;;
572;SDS011;271;51.114;13.780;2024-03-08T13:55:25;31.77;;;17.10;;
572;SDS011;271;51.114;13.780;2024-03-08T13:58:15;31.30;;;16.10;;
572;SDS011;271;51.114;13.780;2024-03-08T14:01:03;33.50;;;15.63;;
572;SDS011;271;51.114;13.780;2024-03-08T14:03:52;33.80;;;15.87;;
572;SDS011;271;51.114;13.780;2024-03-08T14:06:40;30.53;;;15.87;;
572;SDS011;271;51.114;13.780;2024-03-08T14:09:29;31.60;;;15.53;;
572;SDS011;271;51.114;13.780;2024-03-08T14:12:17;33.33;;;17.27;;
572;SDS011;271;51.114;13.780;2024-03-08T14:15:06;31.10;;;15.10;;
572;SDS011;271;51.114;13.780;2024-03-08T14:17:56;21.27;;;8.63;;
572;SDS011;271;51.114;13.780;2024-03-08T14:20:45;21.83;;;7.77;;
572;SDS011;271;51.114;13.780;2024-03-08T14:23:33;22.83;;;8.30;;
572;SDS011;271;51.114;13.780;2024-03-08T14:26:22;21.67;;;7.53;;
572;SDS011;271;51.114;13.780;2024-03-08T14:29:12;21.53;;;7.53;;
572;SDS011;271;51.114;13.780;2024-03-08T14:32:01;21.70;;;7.53;;
572;SDS011;271;51.114;13.780;2024-03-08T14:34:52;21.77;;;7.90;;
572;SDS011;271;51.114;13.780;2024-03-08T14:37:41;21.60;;;8.20;;
572;SDS011;271;51.114;13.780;2024-03-08T14:40:29;22.80;;;8.80;;
572;SDS011;271;51.114;13.780;2024-03-08T14:43:17;20.20;;;7.10;;
572;SDS011;271;51.114;13.780;2024-03-08T14:46:05;20.90;;;7.30;;
572;SDS011;271;51.114;13.780;2024-03-08T14:48:55;21.80;;;7.93;;
572;SDS011;271;51.114;13.780;2024-03-08T14:51:43;22.37;;;7.53;;
572;SDS011;271;51.114;13.780;2024-03-08T14:54:31;21.60;;;6.30;;
572;SDS011;271;51.114;13.780;2024-03-08T14:57:18;20.10;;;6.67;;
572;SDS011;271;51.114;13.780;2024-03-08T15:00:07;20.83;;;6.70;;
572;SDS011;271;51.114;13.780;2024-03-08T15:03:02;19.50;;;5.27;;
572;SDS011;271;51.114;13.780;2024-03-08T15:05:53;21.10;;;7.30;;
572;SDS011;271;51.114;13.780;2024-03-08T15:08:41;19.53;;;5.70;;
572;SDS011;271;51.114;13.780;2024-03-08T15:11:29;18.97;;;5.57;;
572;SDS011;271;51.114;13.780;2024-03-08T15:14:17;18.53;;;5.53;;
572;SDS011;271;51.114;13.780;2024-03-08T15:17:05;19.10;;;5.47;;
572;SDS011;271;51.114;13.780;2024-03-08T15:19:57;21.07;;;5.70;;
572;SDS011;271;51.114;13.780;2024-03-08T15:22:47;19.70;;;5.97;;
572;SDS011;271;51.114;13.780;2024-03-08T15:25:35;21.87;;;7.73;;
572;SDS011;271;51.114;13.780;2024-03-08T15:28:31;22.53;;;6.80;;
572;SDS011;271;51.114;13.780;2024-03-08T15:31:32;19.97;;;6.10;;
572;SDS011;271;51.114;13.780;2024-03-08T15:38:10;19.20;;;5.80;;
572;SDS011;271;51.114;13.780;2024-03-08T15:40:57;19.40;;;6.77;;
572;SDS011;271;51.114;13.780;2024-03-08T15:43:45;19.60;;;5.67;;
572;SDS011;271;51.114;13.780;2024-03-08T15:46:33;20.07;;;5.67;;
572;SDS011;271;51.114;13.780;2024-03-08T15:49:34;20.53;;;5.80;;
572;SDS011;271;51.114;13.780;2024-03-08T15:52:26;21.17;;;6.47;;
572;SDS011;271;51.114;13.780;2024-03-08T15:55:18;20.27;;;7.30;;
572;SDS011;271;51.114;13.780;2024-03-08T15:58:09;32.53;;;16.60;;
572;SDS011;271;51.114;13.780;2024-03-08T16:00:57;33.27;;;17.53;;
572;SDS011;271;51.114;13.780;2024-03-08T16:03:45;36.77;;;19.20;;
572;SDS011;271;51.114;13.780;2024-03-08T16:06:35;35.77;;;18.07;;
572;SDS011;271;51.114;13.780;2024-03-08T16:09:25;40.40;;;20.27;;
572;SDS011;271;51.114;13.780;2024-03-08T16:12:17;36.97;;;20.07;;
572;SDS011;271;51.114;13.780;2024-03-08T16:15:08;40.30;;;21.70;;
572;SDS011;271;51.114;13.780;2024-03-08T16:17:56;37.60;;;20.83;;
572;SDS011;271;51.114;13.780;2024-03-08T16:20:44;37.77;;;22.00;;
572;SDS011;271;51.114;13.780;2024-03-08T16:23:34;41.30;;;22.47;;
572;SDS011;271;51.114;13.780;2024-03-08T16:26:22;42.13;;;22.37;;
572;SDS011;271;51.114;13.780;2024-03-08T16:29:14;42.70;;;24.17;;
572;SDS011;271;51.114;13.780;2024-03-08T16:32:02;44.30;;;25.10;;
572;SDS011;271;51.114;13.780;2024-03-08T16:34:51;39.90;;;23.10;;
572;SDS011;271;51.114;13.780;2024-03-08T16:37:39;42.10;;;23.93;;
572;SDS011;271;51.114;13.780;2024-03-08T16:40:27;43.63;;;25.30;;
572;SDS011;271;51.114;13.780;2024-03-08T16:43:15;43.10;;;24.10;;
572;SDS011;271;51.114;13.780;2024-03-08T16:46:05;44.40;;;25.30;;
572;SDS011;271;51.114;13.780;2024-03-08T16:48:55;43.80;;;25.90;;
572;SDS011;271;51.114;13.780;2024-03-08T16:51:42;44.30;;;26.10;;
572;SDS011;271;51.114;13.780;2024-03-08T16:54:30;44.45;;;25.83;;
572;SDS011;271;51.114;13.780;2024-03-08T16:57:19;46.55;;;26.42;;
572;SDS011;271;51.114;13.780;2024-03-08T17:00:07;46.50;;;26.50;;
572;SDS011;271;51.114;13.780;2024-03-08T17:03:00;50.10;;;27.23;;
572;SDS011;271;51.114;13.780;2024-03-08T17:05:48;45.03;;;26.10;;
572;SDS011;271;51.114;13.780;2024-03-08T17:08:37;50.97;;;28.30;;
572;SDS011;271;51.114;13.780;2024-03-08T17:11:26;44.38;;;25.88;;
572;SDS011;271;51.114;13.780;2024-03-08T17:14:14;52.40;;;26.07;;
572;SDS011;271;51.114;13.780;2024-03-08T17:17:04;44.30;;;27.83;;
572;SDS011;271;51.114;13.780;2024-03-08T17:19:54;45.35;;;26.38;;
572;SDS011;271;51.114;13.780;2024-03-08T17:22:42;51.80;;;29.42;;
572;SDS011;271;51.114;13.780;2024-03-08T17:25:30;52.17;;;31.20;;